sensor_id;sensor_type;location;lat;lon;timestamp;temperature;humidity
25718;DHT22;13574;52.040;5.692;2023-04-01T00:00:29;14.00;99.90
25718;DHT22;13574;52.040;5.692;2023-04-01T00:02:55;13.90;99.90
25718;DHT22;13574;52.040;5.692;2023-04-01T00:05:21;13.80;99.90
25718;DHT22;13574;52.040;5.692;2023-04-01T00:07:46;13.90;99.90
25718;DHT22;13574;52.040;5.692;2023-04-01T00:10:13;13.90;99.90
25718;DHT22;13574;52.040;5.692;2023-04-01T00:12:39;13.80;99.90
25718;DHT22;13574;52.040;5.692;2023-04-01T00:15:08;13.70;99.90
25718;DHT22;13574;52.040;5.692;2023-04-01T00:17:34;13.80;99.90
25718;DHT22;13574;52.040;5.692;2023-04-01T00:20:01;13.80;99.90
25718;DHT22;13574;52.040;5.692;2023-04-01T00:22:28;13.80;99.90
25718;DHT22;13574;52.040;5.692;2023-04-01T00:24:53;14.00;99.90
25718;DHT22;13574;52.040;5.692;2023-04-01T00:27:19;14.00;99.90
25718;DHT22;13574;52.040;5.692;2023-04-01T00:29:46;14.00;99.90
25718;DHT22;13574;52.040;5.692;2023-04-01T00:32:14;13.90;99.90
25718;DHT22;13574;52.040;5.692;2023-04-01T00:34:40;13.90;99.90
25718;DHT22;13574;52.040;5.692;2023-04-01T00:37:07;13.90;99.90
25718;DHT22;13574;52.040;5.692;2023-04-01T00:39:33;14.00;99.90
25718;DHT22;13574;52.040;5.692;2023-04-01T00:42:00;14.20;99.90
25718;DHT22;13574;52.040;5.692;2023-04-01T00:44:30;14.20;99.90
25718;DHT22;13574;52.040;5.692;2023-04-01T00:46:57;14.20;99.90
25718;DHT22;13574;52.040;5.692;2023-04-01T00:49:26;14.30;99.90
25718;DHT22;13574;52.040;5.692;2023-04-01T00:51:55;14.10;99.90
25718;DHT22;13574;52.040;5.692;2023-04-01T00:54:24;14.00;99.90
25718;DHT22;13574;52.040;5.692;2023-04-01T00:59:46;13.90;99.90
25718;DHT22;13574;52.040;5.692;2023-04-01T01:02:14;14.10;99.90
25718;DHT22;13574;52.040;5.692;2023-04-01T01:04:41;13.90;99.90
25718;DHT22;13574;52.040;5.692;2023-04-01T01:10:34;14.10;99.90
25718;DHT22;13574;52.040;5.692;2023-04-01T01:13:25;14.10;99.90
25718;DHT22;13574;52.040;5.692;2023-04-01T01:16:36;14.30;99.90
25718;DHT22;13574;52.040;5.692;2023-04-01T01:19:26;14.40;99.90
25718;DHT22;13574;52.040;5.692;2023-04-01T01:22:35;14.00;99.90
25718;DHT22;13574;52.040;5.692;2023-04-01T01:25:21;14.10;99.90
25718;DHT22;13574;52.040;5.692;2023-04-01T01:31:02;13.90;99.90
25718;DHT22;13574;52.040;5.692;2023-04-01T01:33:34;13.80;99.90
25718;DHT22;13574;52.040;5.692;2023-04-01T01:36:03;13.80;99.90
25718;DHT22;13574;52.040;5.692;2023-04-01T01:38:32;14.00;99.90
25718;DHT22;13574;52.040;5.692;2023-04-01T01:40:59;14.00;99.90
25718;DHT22;13574;52.040;5.692;2023-04-01T01:43:39;14.10;99.90
25718;DHT22;13574;52.040;5.692;2023-04-01T01:46:12;13.90;99.90
25718;DHT22;13574;52.040;5.692;2023-04-01T01:48:40;14.00;99.90
25718;DHT22;13574;52.040;5.692;2023-04-01T01:51:06;13.90;99.90
25718;DHT22;13574;52.040;5.692;2023-04-01T01:53:32;13.80;99.90
25718;DHT22;13574;52.040;5.692;2023-04-01T01:55:58;13.60;99.90
25718;DHT22;13574;52.040;5.692;2023-04-01T01:58:25;13.60;99.90
25718;DHT22;13574;52.040;5.692;2023-04-01T02:01:04;13.70;99.90
25718;DHT22;13574;52.040;5.692;2023-04-01T02:03:34;13.50;99.90
25718;DHT22;13574;52.040;5.692;2023-04-01T02:06:03;13.50;99.90
25718;DHT22;13574;52.040;5.692;2023-04-01T02:11:04;13.50;99.90
25718;DHT22;13574;52.040;5.692;2023-04-01T02:13:32;13.50;99.90
25718;DHT22;13574;52.040;5.692;2023-04-01T02:16:03;13.50;99.90
25718;DHT22;13574;52.040;5.692;2023-04-01T02:18:35;13.50;99.90
25718;DHT22;13574;52.040;5.692;2023-04-01T02:21:03;13.80;99.90
25718;DHT22;13574;52.040;5.692;2023-04-01T02:23:33;13.60;99.90
25718;DHT22;13574;52.040;5.692;2023-04-01T02:26:00;13.60;99.90
25718;DHT22;13574;52.040;5.692;2023-04-01T02:28:26;13.60;99.90
25718;DHT22;13574;52.040;5.692;2023-04-01T02:30:53;13.80;99.90
25718;DHT22;13574;52.040;5.692;2023-04-01T02:33:20;13.80;99.90
25718;DHT22;13574;52.040;5.692;2023-04-01T02:35:46;13.70;99.90
25718;DHT22;13574;52.040;5.692;2023-04-01T02:38:13;13.90;99.90
25718;DHT22;13574;52.040;5.692;2023-04-01T02:40:55;13.70;99.90
25718;DHT22;13574;52.040;5.692;2023-04-01T02:43:21;13.70;99.90
25718;DHT22;13574;52.040;5.692;2023-04-01T02:45:47;13.60;99.90
25718;DHT22;13574;52.040;5.692;2023-04-01T02:48:13;13.80;99.90
25718;DHT22;13574;52.040;5.692;2023-04-01T02:50:39;13.70;99.90
25718;DHT22;13574;52.040;5.692;2023-04-01T02:53:05;13.70;99.90
25718;DHT22;13574;52.040;5.692;2023-04-01T02:55:32;13.60;99.90
25718;DHT22;13574;52.040;5.692;2023-04-01T02:57:58;13.70;99.90
25718;DHT22;13574;52.040;5.692;2023-04-01T03:00:24;13.80;99.90
25718;DHT22;13574;52.040;5.692;2023-04-01T03:02:50;13.70;99.90
25718;DHT22;13574;52.040;5.692;2023-04-01T03:05:16;13.70;99.90
25718;DHT22;13574;52.040;5.692;2023-04-01T03:07:41;13.60;99.90
25718;DHT22;13574;52.040;5.692;2023-04-01T03:10:08;13.60;99.90
25718;DHT22;13574;52.040;5.692;2023-04-01T03:12:33;13.60;99.90
25718;DHT22;13574;52.040;5.692;2023-04-01T03:14:59;13.70;99.90
25718;DHT22;13574;52.040;5.692;2023-04-01T03:17:25;13.80;99.90
25718;DHT22;13574;52.040;5.692;2023-04-01T03:19:50;13.60;99.90
25718;DHT22;13574;52.040;5.692;2023-04-01T03:22:16;13.50;99.90
25718;DHT22;13574;52.040;5.692;2023-04-01T03:24:44;13.70;99.90
25718;DHT22;13574;52.040;5.692;2023-04-01T03:27:09;13.70;99.90
25718;DHT22;13574;52.040;5.692;2023-04-01T03:29:35;13.60;99.90
25718;DHT22;13574;52.040;5.692;2023-04-01T03:32:01;13.70;99.90
25718;DHT22;13574;52.040;5.692;2023-04-01T03:34:26;13.50;99.90
25718;DHT22;13574;52.040;5.692;2023-04-01T03:36:52;13.60;99.90
25718;DHT22;13574;52.040;5.692;2023-04-01T03:39:18;13.70;99.90
25718;DHT22;13574;52.040;5.692;2023-04-01T03:41:45;13.70;99.90
25718;DHT22;13574;52.040;5.692;2023-04-01T03:44:11;13.70;99.90
25718;DHT22;13574;52.040;5.692;2023-04-01T03:46:37;13.70;99.90
25718;DHT22;13574;52.040;5.692;2023-04-01T03:49:05;13.50;99.90
25718;DHT22;13574;52.040;5.692;2023-04-01T03:51:37;13.60;99.90
25718;DHT22;13574;52.040;5.692;2023-04-01T03:54:03;13.70;99.90
25718;DHT22;13574;52.040;5.692;2023-04-01T03:56:28;13.50;99.90
25718;DHT22;13574;52.040;5.692;2023-04-01T03:58:54;13.50;99.90
25718;DHT22;13574;52.040;5.692;2023-04-01T04:01:21;13.60;99.90
25718;DHT22;13574;52.040;5.692;2023-04-01T04:03:48;13.80;99.90
25718;DHT22;13574;52.040;5.692;2023-04-01T04:06:15;13.80;99.90
25718;DHT22;13574;52.040;5.692;2023-04-01T04:08:41;13.80;99.90
25718;DHT22;13574;52.040;5.692;2023-04-01T04:11:07;13.60;99.90
25718;DHT22;13574;52.040;5.692;2023-04-01T04:13:33;13.50;99.90
25718;DHT22;13574;52.040;5.692;2023-04-01T04:15:59;13.60;99.90
25718;DHT22;13574;52.040;5.692;2023-04-01T04:18:25;13.80;99.90
25718;DHT22;13574;52.040;5.692;2023-04-01T04:20:50;13.90;99.90
25718;DHT22;13574;52.040;5.692;2023-04-01T04:23:17;14.00;99.90
25718;DHT22;13574;52.040;5.692;2023-04-01T04:25:58;14.00;99.90
25718;DHT22;13574;52.040;5.692;2023-04-01T04:28:24;13.90;99.90
25718;DHT22;13574;52.040;5.692;2023-04-01T04:30:50;13.90;99.90
25718;DHT22;13574;52.040;5.692;2023-04-01T04:33:16;13.90;99.90
25718;DHT22;13574;52.040;5.692;2023-04-01T04:35:42;14.10;99.90
25718;DHT22;13574;52.040;5.692;2023-04-01T04:38:08;14.00;99.90
25718;DHT22;13574;52.040;5.692;2023-04-01T04:40:36;13.90;99.90
25718;DHT22;13574;52.040;5.692;2023-04-01T04:43:02;13.90;99.90
25718;DHT22;13574;52.040;5.692;2023-04-01T04:45:27;13.90;99.90
25718;DHT22;13574;52.040;5.692;2023-04-01T04:47:53;14.00;99.90
25718;DHT22;13574;52.040;5.692;2023-04-01T04:50:19;14.00;99.90
25718;DHT22;13574;52.040;5.692;2023-04-01T04:52:44;14.10;99.90
25718;DHT22;13574;52.040;5.692;2023-04-01T04:55:10;14.10;99.90
25718;DHT22;13574;52.040;5.692;2023-04-01T04:57:35;14.00;99.90
25718;DHT22;13574;52.040;5.692;2023-04-01T05:00:01;14.20;99.90
25718;DHT22;13574;52.040;5.692;2023-04-01T05:02:27;14.20;99.90
25718;DHT22;13574;52.040;5.692;2023-04-01T05:04:53;14.30;99.90
25718;DHT22;13574;52.040;5.692;2023-04-01T05:07:18;14.30;99.90
25718;DHT22;13574;52.040;5.692;2023-04-01T05:09:44;14.40;99.90
25718;DHT22;13574;52.040;5.692;2023-04-01T05:12:11;14.30;99.90
25718;DHT22;13574;52.040;5.692;2023-04-01T05:14:38;14.20;99.90
25718;DHT22;13574;52.040;5.692;2023-04-01T05:17:07;14.20;99.90
25718;DHT22;13574;52.040;5.692;2023-04-01T05:19:33;14.20;99.90
25718;DHT22;13574;52.040;5.692;2023-04-01T05:21:59;14.30;99.90
25718;DHT22;13574;52.040;5.692;2023-04-01T05:24:24;14.30;99.90
25718;DHT22;13574;52.040;5.692;2023-04-01T05:26:50;14.20;99.90
25718;DHT22;13574;52.040;5.692;2023-04-01T05:29:16;14.20;99.90
25718;DHT22;13574;52.040;5.692;2023-04-01T05:31:41;14.30;99.90
25718;DHT22;13574;52.040;5.692;2023-04-01T05:34:07;14.20;99.90
25718;DHT22;13574;52.040;5.692;2023-04-01T05:36:33;13.90;99.90
25718;DHT22;13574;52.040;5.692;2023-04-01T05:38:59;13.80;99.90
25718;DHT22;13574;52.040;5.692;2023-04-01T05:41:25;13.80;99.90
25718;DHT22;13574;52.040;5.692;2023-04-01T05:43:50;13.80;99.90
25718;DHT22;13574;52.040;5.692;2023-04-01T05:46:16;13.70;99.90
25718;DHT22;13574;52.040;5.692;2023-04-01T05:48:42;13.90;99.90
25718;DHT22;13574;52.040;5.692;2023-04-01T05:51:13;14.10;99.90
25718;DHT22;13574;52.040;5.692;2023-04-01T05:53:38;14.20;99.90
25718;DHT22;13574;52.040;5.692;2023-04-01T05:56:04;14.00;99.90
25718;DHT22;13574;52.040;5.692;2023-04-01T05:58:33;14.00;99.90
25718;DHT22;13574;52.040;5.692;2023-04-01T06:01:07;14.00;99.90
25718;DHT22;13574;52.040;5.692;2023-04-01T06:03:36;14.20;99.90
25718;DHT22;13574;52.040;5.692;2023-04-01T06:06:02;14.20;99.90
25718;DHT22;13574;52.040;5.692;2023-04-01T06:08:30;14.20;99.90
25718;DHT22;13574;52.040;5.692;2023-04-01T06:13:41;14.10;99.90
25718;DHT22;13574;52.040;5.692;2023-04-01T06:16:23;14.30;99.90
25718;DHT22;13574;52.040;5.692;2023-04-01T06:19:13;14.30;99.90
25718;DHT22;13574;52.040;5.692;2023-04-01T06:29:56;14.10;99.90
25718;DHT22;13574;52.040;5.692;2023-04-01T06:38:01;14.10;99.90
25718;DHT22;13574;52.040;5.692;2023-04-01T06:46:44;14.00;99.90
25718;DHT22;13574;52.040;5.692;2023-04-01T06:54:40;14.30;99.90
25718;DHT22;13574;52.040;5.692;2023-04-01T06:57:20;14.50;99.90
25718;DHT22;13574;52.040;5.692;2023-04-01T06:59:47;14.50;99.90
25718;DHT22;13574;52.040;5.692;2023-04-01T07:02:25;14.00;99.90
25718;DHT22;13574;52.040;5.692;2023-04-01T07:04:55;14.00;99.90
25718;DHT22;13574;52.040;5.692;2023-04-01T07:07:37;14.10;99.90
25718;DHT22;13574;52.040;5.692;2023-04-01T07:10:15;14.30;99.90
25718;DHT22;13574;52.040;5.692;2023-04-01T07:12:55;14.30;99.90
25718;DHT22;13574;52.040;5.692;2023-04-01T07:15:30;14.40;99.90
25718;DHT22;13574;52.040;5.692;2023-04-01T07:18:05;14.20;99.90
25718;DHT22;13574;52.040;5.692;2023-04-01T07:20:35;14.10;99.90
25718;DHT22;13574;52.040;5.692;2023-04-01T07:23:10;14.20;99.90
25718;DHT22;13574;52.040;5.692;2023-04-01T07:25:42;14.20;99.90
25718;DHT22;13574;52.040;5.692;2023-04-01T07:28:13;14.30;99.90
25718;DHT22;13574;52.040;5.692;2023-04-01T07:36:14;14.10;99.90
25718;DHT22;13574;52.040;5.692;2023-04-01T07:38:54;14.20;99.90
25718;DHT22;13574;52.040;5.692;2023-04-01T07:46:46;14.20;99.90
25718;DHT22;13574;52.040;5.692;2023-04-01T08:19:59;13.80;99.90
25718;DHT22;13574;52.040;5.692;2023-04-01T08:22:41;13.90;99.90
25718;DHT22;13574;52.040;5.692;2023-04-01T08:25:14;13.80;99.90
25718;DHT22;13574;52.040;5.692;2023-04-01T08:27:45;13.90;99.90
25718;DHT22;13574;52.040;5.692;2023-04-01T08:30:26;13.90;99.90
25718;DHT22;13574;52.040;5.692;2023-04-01T08:32:56;14.00;99.90
25718;DHT22;13574;52.040;5.692;2023-04-01T08:35:31;14.30;99.90
25718;DHT22;13574;52.040;5.692;2023-04-01T08:38:04;13.60;99.90
25718;DHT22;13574;52.040;5.692;2023-04-01T08:51:19;14.00;99.90
25718;DHT22;13574;52.040;5.692;2023-04-01T08:54:20;14.00;99.90
25718;DHT22;13574;52.040;5.692;2023-04-01T08:57:14;13.90;99.90
25718;DHT22;13574;52.040;5.692;2023-04-01T09:03:02;14.00;99.90
25718;DHT22;13574;52.040;5.692;2023-04-01T09:19:46;14.40;99.90
25718;DHT22;13574;52.040;5.692;2023-04-01T09:25:36;14.60;99.90
25718;DHT22;13574;52.040;5.692;2023-04-01T09:28:36;14.60;99.90
25718;DHT22;13574;52.040;5.692;2023-04-01T09:36:50;14.70;99.90
25718;DHT22;13574;52.040;5.692;2023-04-01T09:39:31;14.80;99.90
25718;DHT22;13574;52.040;5.692;2023-04-01T09:44:59;14.60;99.90
25718;DHT22;13574;52.040;5.692;2023-04-01T09:47:43;14.40;99.90
25718;DHT22;13574;52.040;5.692;2023-04-01T09:50:46;14.60;99.90
25718;DHT22;13574;52.040;5.692;2023-04-01T10:07:07;15.50;99.90
25718;DHT22;13574;52.040;5.692;2023-04-01T10:26:32;15.90;99.90
25718;DHT22;13574;52.040;5.692;2023-04-01T10:54:19;16.50;99.90
25718;DHT22;13574;52.040;5.692;2023-04-01T10:59:52;17.20;99.90
25718;DHT22;13574;52.040;5.692;2023-04-01T11:13:49;16.10;99.90
25718;DHT22;13574;52.040;5.692;2023-04-01T11:17:19;16.00;99.90
25718;DHT22;13574;52.040;5.692;2023-04-01T11:36:15;14.60;99.90
25718;DHT22;13574;52.040;5.692;2023-04-01T11:39:08;15.00;99.90
25718;DHT22;13574;52.040;5.692;2023-04-01T11:42:20;15.50;99.90
25718;DHT22;13574;52.040;5.692;2023-04-01T11:44:26;15.30;99.90
25718;DHT22;13574;52.040;5.692;2023-04-01T11:50:21;14.80;99.90
25718;DHT22;13574;52.040;5.692;2023-04-01T11:52:41;15.00;99.90
25718;DHT22;13574;52.040;5.692;2023-04-01T11:55:20;15.10;99.90
25718;DHT22;13574;52.040;5.692;2023-04-01T11:58:08;14.90;99.90
25718;DHT22;13574;52.040;5.692;2023-04-01T12:01:08;14.50;99.90
25718;DHT22;13574;52.040;5.692;2023-04-01T12:07:10;14.70;99.90
25718;DHT22;13574;52.040;5.692;2023-04-01T12:26:30;14.50;99.90
25718;DHT22;13574;52.040;5.692;2023-04-01T12:35:29;14.70;99.90
25718;DHT22;13574;52.040;5.692;2023-04-01T12:46:19;15.00;99.90
25718;DHT22;13574;52.040;5.692;2023-04-01T12:49:13;14.90;99.90
25718;DHT22;13574;52.040;5.692;2023-04-01T12:52:04;14.90;99.90
25718;DHT22;13574;52.040;5.692;2023-04-01T13:05:22;14.80;99.90
25718;DHT22;13574;52.040;5.692;2023-04-01T13:08:07;15.20;99.90
25718;DHT22;13574;52.040;5.692;2023-04-01T13:11:02;15.10;99.90
25718;DHT22;13574;52.040;5.692;2023-04-01T13:13:38;14.90;99.90
25718;DHT22;13574;52.040;5.692;2023-04-01T13:16:16;15.00;99.90
25718;DHT22;13574;52.040;5.692;2023-04-01T13:24:23;14.80;99.90
25718;DHT22;13574;52.040;5.692;2023-04-01T13:26:58;14.90;99.90
25718;DHT22;13574;52.040;5.692;2023-04-01T13:33:13;15.00;99.90
25718;DHT22;13574;52.040;5.692;2023-04-01T13:36:04;15.10;99.90
25718;DHT22;13574;52.040;5.692;2023-04-01T13:38:48;15.30;99.90
25718;DHT22;13574;52.040;5.692;2023-04-01T13:41:25;15.10;99.90
25718;DHT22;13574;52.040;5.692;2023-04-01T13:44:02;15.30;99.90
25718;DHT22;13574;52.040;5.692;2023-04-01T13:52:42;15.30;99.90
25718;DHT22;13574;52.040;5.692;2023-04-01T13:55:32;15.10;99.90
25718;DHT22;13574;52.040;5.692;2023-04-01T14:04:35;15.60;99.90
25718;DHT22;13574;52.040;5.692;2023-04-01T14:06:55;15.70;99.90
25718;DHT22;13574;52.040;5.692;2023-04-01T14:20:41;15.80;99.90
25718;DHT22;13574;52.040;5.692;2023-04-01T14:28:28;16.00;99.90
25718;DHT22;13574;52.040;5.692;2023-04-01T14:31:11;16.00;99.90
25718;DHT22;13574;52.040;5.692;2023-04-01T14:33:57;16.10;99.90
25718;DHT22;13574;52.040;5.692;2023-04-01T14:36:41;15.90;99.90
25718;DHT22;13574;52.040;5.692;2023-04-01T14:39:29;15.90;99.90
25718;DHT22;13574;52.040;5.692;2023-04-01T14:47:43;15.50;99.90
25718;DHT22;13574;52.040;5.692;2023-04-01T14:50:14;15.50;99.90
25718;DHT22;13574;52.040;5.692;2023-04-01T14:55:34;15.30;99.90
25718;DHT22;13574;52.040;5.692;2023-04-01T14:58:11;15.50;99.90
25718;DHT22;13574;52.040;5.692;2023-04-01T15:03:22;15.20;99.90
25718;DHT22;13574;52.040;5.692;2023-04-01T15:05:52;15.30;99.90
25718;DHT22;13574;52.040;5.692;2023-04-01T15:08:32;15.30;99.90
25718;DHT22;13574;52.040;5.692;2023-04-01T15:16:58;15.40;99.90
25718;DHT22;13574;52.040;5.692;2023-04-01T15:28:36;14.60;99.90
25718;DHT22;13574;52.040;5.692;2023-04-01T15:36:40;14.60;99.90
25718;DHT22;13574;52.040;5.692;2023-04-01T15:44:44;13.80;99.90
25718;DHT22;13574;52.040;5.692;2023-04-01T15:47:33;13.70;99.90
25718;DHT22;13574;52.040;5.692;2023-04-01T16:01:31;13.50;99.90
25718;DHT22;13574;52.040;5.692;2023-04-01T16:13:09;13.80;99.90
25718;DHT22;13574;52.040;5.692;2023-04-01T16:15:40;13.70;99.90
25718;DHT22;13574;52.040;5.692;2023-04-01T16:23:55;14.10;99.90
25718;DHT22;13574;52.040;5.692;2023-04-01T16:26:29;13.80;99.90
25718;DHT22;13574;52.040;5.692;2023-04-01T16:31:50;13.30;99.90
25718;DHT22;13574;52.040;5.692;2023-04-01T16:37:14;13.20;99.90
25718;DHT22;13574;52.040;5.692;2023-04-01T16:40:11;13.00;99.90
25718;DHT22;13574;52.040;5.692;2023-04-01T16:42:42;13.10;99.90
25718;DHT22;13574;52.040;5.692;2023-04-01T16:45:16;12.80;99.90
25718;DHT22;13574;52.040;5.692;2023-04-01T16:47:49;12.70;99.90
25718;DHT22;13574;52.040;5.692;2023-04-01T16:50:42;12.40;99.90
25718;DHT22;13574;52.040;5.692;2023-04-01T16:53:19;12.60;99.90
25718;DHT22;13574;52.040;5.692;2023-04-01T16:55:57;12.60;99.90
25718;DHT22;13574;52.040;5.692;2023-04-01T16:58:36;12.50;99.90
25718;DHT22;13574;52.040;5.692;2023-04-01T17:01:30;12.60;99.90
25718;DHT22;13574;52.040;5.692;2023-04-01T17:04:36;12.70;99.90
25718;DHT22;13574;52.040;5.692;2023-04-01T17:07:23;12.80;99.90
25718;DHT22;13574;52.040;5.692;2023-04-01T17:15:27;13.00;99.90
25718;DHT22;13574;52.040;5.692;2023-04-01T17:21:02;12.70;99.90
25718;DHT22;13574;52.040;5.692;2023-04-01T17:23:37;12.70;99.90
25718;DHT22;13574;52.040;5.692;2023-04-01T17:28:50;12.40;99.90
25718;DHT22;13574;52.040;5.692;2023-04-01T17:45:55;12.20;99.90
25718;DHT22;13574;52.040;5.692;2023-04-01T17:48:49;12.40;99.90
25718;DHT22;13574;52.040;5.692;2023-04-01T17:51:31;12.40;99.90
25718;DHT22;13574;52.040;5.692;2023-04-01T17:59:38;11.50;99.90
25718;DHT22;13574;52.040;5.692;2023-04-01T18:02:29;11.70;99.90
25718;DHT22;13574;52.040;5.692;2023-04-01T18:10:28;11.90;99.90
25718;DHT22;13574;52.040;5.692;2023-04-01T18:24:22;12.10;99.90
25718;DHT22;13574;52.040;5.692;2023-04-01T18:27:15;11.90;99.90
25718;DHT22;13574;52.040;5.692;2023-04-01T18:30:32;11.80;99.90
25718;DHT22;13574;52.040;5.692;2023-04-01T18:32:37;11.90;99.90
25718;DHT22;13574;52.040;5.692;2023-04-01T18:35:49;12.20;99.90
25718;DHT22;13574;52.040;5.692;2023-04-01T18:51:57;11.20;99.90
25718;DHT22;13574;52.040;5.692;2023-04-01T18:54:32;11.10;99.90
25718;DHT22;13574;52.040;5.692;2023-04-01T18:57:13;11.20;99.90
25718;DHT22;13574;52.040;5.692;2023-04-01T18:59:50;11.50;99.90
25718;DHT22;13574;52.040;5.692;2023-04-01T19:02:29;11.30;99.90
25718;DHT22;13574;52.040;5.692;2023-04-01T19:21:26;11.40;99.90
25718;DHT22;13574;52.040;5.692;2023-04-01T19:26:53;11.20;99.90
25718;DHT22;13574;52.040;5.692;2023-04-01T19:32:46;11.00;99.90
25718;DHT22;13574;52.040;5.692;2023-04-01T19:35:42;10.90;99.90
25718;DHT22;13574;52.040;5.692;2023-04-01T19:49:38;10.80;99.90
25718;DHT22;13574;52.040;5.692;2023-04-01T19:52:44;10.60;99.90
25718;DHT22;13574;52.040;5.692;2023-04-01T19:55:46;10.70;99.90
25718;DHT22;13574;52.040;5.692;2023-04-01T20:01:34;10.50;99.90
25718;DHT22;13574;52.040;5.692;2023-04-01T20:10:08;10.70;99.90
25718;DHT22;13574;52.040;5.692;2023-04-01T20:12:51;10.90;99.90
25718;DHT22;13574;52.040;5.692;2023-04-01T20:18:02;10.80;99.90
25718;DHT22;13574;52.040;5.692;2023-04-01T20:20:30;10.50;99.90
25718;DHT22;13574;52.040;5.692;2023-04-01T20:25:52;10.60;99.90
25718;DHT22;13574;52.040;5.692;2023-04-01T20:31:07;10.20;99.90
25718;DHT22;13574;52.040;5.692;2023-04-01T20:33:47;10.50;99.90
25718;DHT22;13574;52.040;5.692;2023-04-01T20:36:24;10.30;99.90
25718;DHT22;13574;52.040;5.692;2023-04-01T20:44:13;10.20;99.90
25718;DHT22;13574;52.040;5.692;2023-04-01T20:54:59;10.50;99.90
25718;DHT22;13574;52.040;5.692;2023-04-01T20:57:51;10.70;99.90
25718;DHT22;13574;52.040;5.692;2023-04-01T21:00:37;10.10;99.90
25718;DHT22;13574;52.040;5.692;2023-04-01T21:15:00;10.20;99.90
25718;DHT22;13574;52.040;5.692;2023-04-01T21:21:07;10.10;99.90
25718;DHT22;13574;52.040;5.692;2023-04-01T21:40:18;9.90;99.90
25718;DHT22;13574;52.040;5.692;2023-04-01T22:03:56;9.10;99.90
25718;DHT22;13574;52.040;5.692;2023-04-01T22:06:24;9.20;99.90
25718;DHT22;13574;52.040;5.692;2023-04-01T22:14:25;9.30;99.90
25718;DHT22;13574;52.040;5.692;2023-04-01T22:16:57;9.50;99.90
25718;DHT22;13574;52.040;5.692;2023-04-01T22:19:45;9.60;99.90
25718;DHT22;13574;52.040;5.692;2023-04-01T22:25:25;9.30;99.90
25718;DHT22;13574;52.040;5.692;2023-04-01T22:30:41;9.30;99.90
25718;DHT22;13574;52.040;5.692;2023-04-01T22:33:41;9.60;99.90
25718;DHT22;13574;52.040;5.692;2023-04-01T22:36:36;9.40;99.90
25718;DHT22;13574;52.040;5.692;2023-04-01T22:42:04;9.70;99.90
25718;DHT22;13574;52.040;5.692;2023-04-01T22:44:57;9.80;99.90
25718;DHT22;13574;52.040;5.692;2023-04-01T22:50:21;9.70;99.90
25718;DHT22;13574;52.040;5.692;2023-04-01T22:52:53;9.70;99.90
25718;DHT22;13574;52.040;5.692;2023-04-01T22:55:24;9.50;99.90
25718;DHT22;13574;52.040;5.692;2023-04-01T22:57:57;9.40;99.90
25718;DHT22;13574;52.040;5.692;2023-04-01T23:00:32;9.60;99.90
25718;DHT22;13574;52.040;5.692;2023-04-01T23:05:53;9.50;99.90
25718;DHT22;13574;52.040;5.692;2023-04-01T23:22:19;9.10;99.90
25718;DHT22;13574;52.040;5.692;2023-04-01T23:38:25;8.90;99.90
25718;DHT22;13574;52.040;5.692;2023-04-01T23:40:53;8.50;99.90
25718;DHT22;13574;52.040;5.692;2023-04-01T23:43:33;8.50;99.90
25718;DHT22;13574;52.040;5.692;2023-04-01T23:46:02;8.60;99.90
25718;DHT22;13574;52.040;5.692;2023-04-01T23:48:43;9.00;99.90
25718;DHT22;13574;52.040;5.692;2023-04-01T23:51:18;8.70;99.90
25718;DHT22;13574;52.040;5.692;2023-04-01T23:53:46;8.70;99.90
25718;DHT22;13574;52.040;5.692;2023-04-01T23:56:16;8.60;99.90
25718;DHT22;13574;52.040;5.692;2023-04-01T23:58:44;8.70;99.90
